sensor_id;sensor_type;location;lat;lon;timestamp;temperature;humidity
17007;DHT22;8620;51.168;4.154;2022-10-19T00:03:49;12.40;99.90
17007;DHT22;8620;51.168;4.154;2022-10-19T00:06:57;12.40;99.90
17007;DHT22;8620;51.168;4.154;2022-10-19T00:09:33;12.30;99.90
17007;DHT22;8620;51.168;4.154;2022-10-19T00:12:18;12.30;99.90
17007;DHT22;8620;51.168;4.154;2022-10-19T00:14:47;12.50;99.90
17007;DHT22;8620;51.168;4.154;2022-10-19T00:17:13;12.50;99.90
17007;DHT22;8620;51.168;4.154;2022-10-19T00:19:39;12.30;99.90
17007;DHT22;8620;51.168;4.154;2022-10-19T00:22:05;12.10;99.90
17007;DHT22;8620;51.168;4.154;2022-10-19T00:24:30;12.00;99.90
17007;DHT22;8620;51.168;4.154;2022-10-19T00:26:57;11.90;99.90
17007;DHT22;8620;51.168;4.154;2022-10-19T00:29:23;11.90;99.90
17007;DHT22;8620;51.168;4.154;2022-10-19T00:31:49;11.90;99.90
17007;DHT22;8620;51.168;4.154;2022-10-19T00:34:16;11.90;99.90
17007;DHT22;8620;51.168;4.154;2022-10-19T00:36:59;11.90;99.90
17007;DHT22;8620;51.168;4.154;2022-10-19T00:39:42;12.00;99.90
17007;DHT22;8620;51.168;4.154;2022-10-19T00:42:48;12.10;99.90
17007;DHT22;8620;51.168;4.154;2022-10-19T00:45:38;12.10;99.90
17007;DHT22;8620;51.168;4.154;2022-10-19T00:48:05;12.20;99.90
17007;DHT22;8620;51.168;4.154;2022-10-19T00:50:31;12.20;99.90
17007;DHT22;8620;51.168;4.154;2022-10-19T00:52:57;11.80;99.90
17007;DHT22;8620;51.168;4.154;2022-10-19T00:55:23;11.80;99.90
17007;DHT22;8620;51.168;4.154;2022-10-19T00:57:50;11.80;99.90
17007;DHT22;8620;51.168;4.154;2022-10-19T01:00:16;11.80;99.90
17007;DHT22;8620;51.168;4.154;2022-10-19T01:02:42;12.00;99.90
17007;DHT22;8620;51.168;4.154;2022-10-19T01:05:09;12.10;99.90
17007;DHT22;8620;51.168;4.154;2022-10-19T01:07:35;12.10;99.90
17007;DHT22;8620;51.168;4.154;2022-10-19T01:10:01;12.00;99.90
17007;DHT22;8620;51.168;4.154;2022-10-19T01:15:18;12.20;99.90
17007;DHT22;8620;51.168;4.154;2022-10-19T01:18:10;12.10;99.90
17007;DHT22;8620;51.168;4.154;2022-10-19T01:21:24;12.00;99.90
17007;DHT22;8620;51.168;4.154;2022-10-19T01:24:21;11.80;99.90
17007;DHT22;8620;51.168;4.154;2022-10-19T01:36:31;11.80;99.90
17007;DHT22;8620;51.168;4.154;2022-10-19T01:45:24;11.70;99.90
17007;DHT22;8620;51.168;4.154;2022-10-19T01:48:01;11.40;99.90
17007;DHT22;8620;51.168;4.154;2022-10-19T01:50:38;11.50;99.90
17007;DHT22;8620;51.168;4.154;2022-10-19T01:53:09;11.60;99.90
17007;DHT22;8620;51.168;4.154;2022-10-19T01:55:39;11.60;99.90
17007;DHT22;8620;51.168;4.154;2022-10-19T01:58:14;11.60;99.90
17007;DHT22;8620;51.168;4.154;2022-10-19T02:00:45;11.40;99.90
17007;DHT22;8620;51.168;4.154;2022-10-19T02:03:19;11.40;99.90
17007;DHT22;8620;51.168;4.154;2022-10-19T02:05:46;11.40;99.90
17007;DHT22;8620;51.168;4.154;2022-10-19T02:08:23;11.40;99.90
17007;DHT22;8620;51.168;4.154;2022-10-19T02:10:55;11.40;99.90
17007;DHT22;8620;51.168;4.154;2022-10-19T02:13:26;11.40;99.90
17007;DHT22;8620;51.168;4.154;2022-10-19T02:15:55;11.40;99.90
17007;DHT22;8620;51.168;4.154;2022-10-19T02:18:28;11.40;99.90
17007;DHT22;8620;51.168;4.154;2022-10-19T02:20:57;11.50;99.90
17007;DHT22;8620;51.168;4.154;2022-10-19T02:23:25;11.50;99.90
17007;DHT22;8620;51.168;4.154;2022-10-19T02:25:52;11.60;99.90
17007;DHT22;8620;51.168;4.154;2022-10-19T02:28:24;11.60;99.90
17007;DHT22;8620;51.168;4.154;2022-10-19T02:30:50;11.60;99.90
17007;DHT22;8620;51.168;4.154;2022-10-19T02:33:16;11.60;99.90
17007;DHT22;8620;51.168;4.154;2022-10-19T02:35:42;11.40;99.90
17007;DHT22;8620;51.168;4.154;2022-10-19T02:38:10;11.40;99.90
17007;DHT22;8620;51.168;4.154;2022-10-19T02:40:44;11.50;99.90
17007;DHT22;8620;51.168;4.154;2022-10-19T02:43:19;11.50;99.90
17007;DHT22;8620;51.168;4.154;2022-10-19T02:45:53;11.50;99.90
17007;DHT22;8620;51.168;4.154;2022-10-19T02:48:24;11.40;99.90
17007;DHT22;8620;51.168;4.154;2022-10-19T02:50:51;11.50;99.90
17007;DHT22;8620;51.168;4.154;2022-10-19T02:53:17;11.40;99.90
17007;DHT22;8620;51.168;4.154;2022-10-19T02:55:43;11.40;99.90
17007;DHT22;8620;51.168;4.154;2022-10-19T02:58:14;11.50;99.90
17007;DHT22;8620;51.168;4.154;2022-10-19T03:00:43;11.60;99.90
17007;DHT22;8620;51.168;4.154;2022-10-19T03:03:11;11.50;99.90
17007;DHT22;8620;51.168;4.154;2022-10-19T03:05:37;11.50;99.90
17007;DHT22;8620;51.168;4.154;2022-10-19T03:08:04;11.50;99.90
17007;DHT22;8620;51.168;4.154;2022-10-19T03:10:32;11.50;99.90
17007;DHT22;8620;51.168;4.154;2022-10-19T03:12:58;11.50;99.90
17007;DHT22;8620;51.168;4.154;2022-10-19T03:15:24;11.50;99.90
17007;DHT22;8620;51.168;4.154;2022-10-19T03:17:54;11.50;99.90
17007;DHT22;8620;51.168;4.154;2022-10-19T03:20:23;11.50;99.90
17007;DHT22;8620;51.168;4.154;2022-10-19T03:22:52;11.60;99.90
17007;DHT22;8620;51.168;4.154;2022-10-19T03:25:20;11.60;99.90
17007;DHT22;8620;51.168;4.154;2022-10-19T03:27:46;11.70;99.90
17007;DHT22;8620;51.168;4.154;2022-10-19T03:30:12;11.60;99.90
17007;DHT22;8620;51.168;4.154;2022-10-19T03:32:38;11.60;99.90
17007;DHT22;8620;51.168;4.154;2022-10-19T03:35:04;11.60;99.90
17007;DHT22;8620;51.168;4.154;2022-10-19T03:37:33;11.60;99.90
17007;DHT22;8620;51.168;4.154;2022-10-19T03:39:59;11.50;99.90
17007;DHT22;8620;51.168;4.154;2022-10-19T03:42:28;11.60;99.90
17007;DHT22;8620;51.168;4.154;2022-10-19T03:44:54;11.70;99.90
17007;DHT22;8620;51.168;4.154;2022-10-19T03:47:22;11.60;99.90
17007;DHT22;8620;51.168;4.154;2022-10-19T03:49:48;11.50;99.90
17007;DHT22;8620;51.168;4.154;2022-10-19T03:52:18;11.50;99.90
17007;DHT22;8620;51.168;4.154;2022-10-19T03:54:50;11.60;99.90
17007;DHT22;8620;51.168;4.154;2022-10-19T03:57:16;11.60;99.90
17007;DHT22;8620;51.168;4.154;2022-10-19T03:59:47;11.70;99.90
17007;DHT22;8620;51.168;4.154;2022-10-19T04:02:16;11.70;99.90
17007;DHT22;8620;51.168;4.154;2022-10-19T04:04:41;11.60;99.90
17007;DHT22;8620;51.168;4.154;2022-10-19T04:07:07;11.70;99.90
17007;DHT22;8620;51.168;4.154;2022-10-19T04:09:36;11.80;99.90
17007;DHT22;8620;51.168;4.154;2022-10-19T04:12:02;11.60;99.90
17007;DHT22;8620;51.168;4.154;2022-10-19T04:14:28;11.50;99.90
17007;DHT22;8620;51.168;4.154;2022-10-19T04:16:59;11.50;99.90
17007;DHT22;8620;51.168;4.154;2022-10-19T04:19:28;11.40;99.90
17007;DHT22;8620;51.168;4.154;2022-10-19T04:21:54;11.30;99.90
17007;DHT22;8620;51.168;4.154;2022-10-19T04:24:20;11.20;99.90
17007;DHT22;8620;51.168;4.154;2022-10-19T04:26:51;11.30;99.90
17007;DHT22;8620;51.168;4.154;2022-10-19T04:29:20;11.30;99.90
17007;DHT22;8620;51.168;4.154;2022-10-19T04:31:50;11.20;99.90
17007;DHT22;8620;51.168;4.154;2022-10-19T04:34:17;11.30;99.90
17007;DHT22;8620;51.168;4.154;2022-10-19T04:37:01;11.30;99.90
17007;DHT22;8620;51.168;4.154;2022-10-19T04:39:26;11.40;99.90
17007;DHT22;8620;51.168;4.154;2022-10-19T04:41:52;11.40;99.90
17007;DHT22;8620;51.168;4.154;2022-10-19T04:44:18;11.50;99.90
17007;DHT22;8620;51.168;4.154;2022-10-19T04:46:47;11.30;99.90
17007;DHT22;8620;51.168;4.154;2022-10-19T04:49:13;11.20;99.90
17007;DHT22;8620;51.168;4.154;2022-10-19T04:51:39;11.10;99.90
17007;DHT22;8620;51.168;4.154;2022-10-19T04:54:04;11.00;99.90
17007;DHT22;8620;51.168;4.154;2022-10-19T04:56:31;10.90;99.90
17007;DHT22;8620;51.168;4.154;2022-10-19T04:58:58;11.00;99.90
17007;DHT22;8620;51.168;4.154;2022-10-19T05:01:29;10.90;99.90
17007;DHT22;8620;51.168;4.154;2022-10-19T05:03:58;10.70;99.90
17007;DHT22;8620;51.168;4.154;2022-10-19T05:06:25;10.60;99.90
17007;DHT22;8620;51.168;4.154;2022-10-19T05:08:51;10.50;99.90
17007;DHT22;8620;51.168;4.154;2022-10-19T05:11:18;10.50;99.90
17007;DHT22;8620;51.168;4.154;2022-10-19T05:13:44;10.50;99.90
17007;DHT22;8620;51.168;4.154;2022-10-19T05:16:16;10.50;99.90
17007;DHT22;8620;51.168;4.154;2022-10-19T05:18:52;10.50;99.90
17007;DHT22;8620;51.168;4.154;2022-10-19T05:21:24;10.60;99.90
17007;DHT22;8620;51.168;4.154;2022-10-19T05:23:53;10.60;99.90
17007;DHT22;8620;51.168;4.154;2022-10-19T05:26:23;10.40;99.90
17007;DHT22;8620;51.168;4.154;2022-10-19T05:28:55;10.40;99.90
17007;DHT22;8620;51.168;4.154;2022-10-19T05:31:26;10.40;99.90
17007;DHT22;8620;51.168;4.154;2022-10-19T05:33:56;10.50;99.90
17007;DHT22;8620;51.168;4.154;2022-10-19T05:36:26;10.50;99.90
17007;DHT22;8620;51.168;4.154;2022-10-19T05:39:01;10.40;99.90
17007;DHT22;8620;51.168;4.154;2022-10-19T05:41:32;10.40;99.90
17007;DHT22;8620;51.168;4.154;2022-10-19T05:44:00;10.40;99.90
17007;DHT22;8620;51.168;4.154;2022-10-19T05:46:28;10.40;99.90
17007;DHT22;8620;51.168;4.154;2022-10-19T05:48:55;10.50;99.90
17007;DHT22;8620;51.168;4.154;2022-10-19T05:51:25;10.60;99.90
17007;DHT22;8620;51.168;4.154;2022-10-19T05:54:17;10.60;99.90
17007;DHT22;8620;51.168;4.154;2022-10-19T05:56:44;10.60;99.90
17007;DHT22;8620;51.168;4.154;2022-10-19T05:59:17;10.60;99.90
17007;DHT22;8620;51.168;4.154;2022-10-19T06:01:45;10.50;99.90
17007;DHT22;8620;51.168;4.154;2022-10-19T06:04:11;10.50;99.90
17007;DHT22;8620;51.168;4.154;2022-10-19T06:06:49;10.50;99.90
17007;DHT22;8620;51.168;4.154;2022-10-19T06:09:23;10.40;99.90
17007;DHT22;8620;51.168;4.154;2022-10-19T06:11:49;10.40;99.90
17007;DHT22;8620;51.168;4.154;2022-10-19T06:14:15;10.40;99.90
17007;DHT22;8620;51.168;4.154;2022-10-19T06:16:50;10.40;99.90
17007;DHT22;8620;51.168;4.154;2022-10-19T06:19:33;10.30;99.90
17007;DHT22;8620;51.168;4.154;2022-10-19T06:22:02;10.40;99.90
17007;DHT22;8620;51.168;4.154;2022-10-19T06:24:30;10.30;99.90
17007;DHT22;8620;51.168;4.154;2022-10-19T06:26:56;10.40;99.90
17007;DHT22;8620;51.168;4.154;2022-10-19T06:29:25;10.50;99.90
17007;DHT22;8620;51.168;4.154;2022-10-19T06:32:12;10.50;99.90
17007;DHT22;8620;51.168;4.154;2022-10-19T06:34:38;10.50;99.90
17007;DHT22;8620;51.168;4.154;2022-10-19T06:37:06;10.50;99.90
17007;DHT22;8620;51.168;4.154;2022-10-19T06:39:32;10.60;99.90
17007;DHT22;8620;51.168;4.154;2022-10-19T06:42:01;10.60;99.90
17007;DHT22;8620;51.168;4.154;2022-10-19T06:44:32;10.70;99.90
17007;DHT22;8620;51.168;4.154;2022-10-19T06:46:58;10.80;99.90
17007;DHT22;8620;51.168;4.154;2022-10-19T06:49:24;10.80;99.90
17007;DHT22;8620;51.168;4.154;2022-10-19T06:51:50;10.90;99.90
17007;DHT22;8620;51.168;4.154;2022-10-19T06:54:15;10.90;99.90
17007;DHT22;8620;51.168;4.154;2022-10-19T06:56:44;10.80;99.90
17007;DHT22;8620;51.168;4.154;2022-10-19T06:59:10;10.80;99.90
17007;DHT22;8620;51.168;4.154;2022-10-19T07:01:39;10.90;99.90
17007;DHT22;8620;51.168;4.154;2022-10-19T07:04:08;11.00;99.90
17007;DHT22;8620;51.168;4.154;2022-10-19T07:06:33;11.10;99.90
17007;DHT22;8620;51.168;4.154;2022-10-19T07:09:02;11.00;99.90
17007;DHT22;8620;51.168;4.154;2022-10-19T07:11:28;11.00;99.90
17007;DHT22;8620;51.168;4.154;2022-10-19T07:13:56;11.10;99.90
17007;DHT22;8620;51.168;4.154;2022-10-19T07:16:22;11.20;99.90
17007;DHT22;8620;51.168;4.154;2022-10-19T07:19:08;11.20;99.90
17007;DHT22;8620;51.168;4.154;2022-10-19T07:21:37;11.30;99.90
17007;DHT22;8620;51.168;4.154;2022-10-19T07:24:06;11.30;99.90
17007;DHT22;8620;51.168;4.154;2022-10-19T07:26:33;11.30;99.90
17007;DHT22;8620;51.168;4.154;2022-10-19T07:28:59;11.30;99.90
17007;DHT22;8620;51.168;4.154;2022-10-19T07:31:27;11.40;99.90
17007;DHT22;8620;51.168;4.154;2022-10-19T07:33:55;11.60;99.90
17007;DHT22;8620;51.168;4.154;2022-10-19T07:36:23;11.60;99.90
17007;DHT22;8620;51.168;4.154;2022-10-19T07:38:50;11.70;99.90
17007;DHT22;8620;51.168;4.154;2022-10-19T07:41:18;11.80;99.90
17007;DHT22;8620;51.168;4.154;2022-10-19T07:43:46;11.80;99.90
17007;DHT22;8620;51.168;4.154;2022-10-19T07:46:15;11.90;99.90
17007;DHT22;8620;51.168;4.154;2022-10-19T07:48:43;12.00;99.90
17007;DHT22;8620;51.168;4.154;2022-10-19T07:51:10;12.20;99.90
17007;DHT22;8620;51.168;4.154;2022-10-19T07:53:37;12.50;99.90
17007;DHT22;8620;51.168;4.154;2022-10-19T07:56:11;12.60;99.90
17007;DHT22;8620;51.168;4.154;2022-10-19T07:58:39;12.50;99.90
17007;DHT22;8620;51.168;4.154;2022-10-19T08:01:15;12.60;99.90
17007;DHT22;8620;51.168;4.154;2022-10-19T08:03:42;12.70;99.90
17007;DHT22;8620;51.168;4.154;2022-10-19T08:06:12;12.90;99.90
17007;DHT22;8620;51.168;4.154;2022-10-19T08:08:41;13.20;99.90
17007;DHT22;8620;51.168;4.154;2022-10-19T08:11:13;13.40;99.90
17007;DHT22;8620;51.168;4.154;2022-10-19T08:13:39;13.70;99.90
17007;DHT22;8620;51.168;4.154;2022-10-19T08:16:16;13.90;99.90
17007;DHT22;8620;51.168;4.154;2022-10-19T08:18:48;13.90;99.90
17007;DHT22;8620;51.168;4.154;2022-10-19T08:21:15;14.10;99.90
17007;DHT22;8620;51.168;4.154;2022-10-19T08:23:41;14.10;99.90
17007;DHT22;8620;51.168;4.154;2022-10-19T08:26:06;14.30;99.90
17007;DHT22;8620;51.168;4.154;2022-10-19T08:28:32;14.20;99.90
17007;DHT22;8620;51.168;4.154;2022-10-19T08:31:29;14.20;99.90
17007;DHT22;8620;51.168;4.154;2022-10-19T08:33:57;14.30;99.90
17007;DHT22;8620;51.168;4.154;2022-10-19T08:36:23;14.60;99.90
17007;DHT22;8620;51.168;4.154;2022-10-19T08:38:51;14.60;99.90
17007;DHT22;8620;51.168;4.154;2022-10-19T08:50:38;14.80;99.90
17007;DHT22;8620;51.168;4.154;2022-10-19T08:53:11;15.10;99.90
17007;DHT22;8620;51.168;4.154;2022-10-19T08:56:01;15.00;99.90
17007;DHT22;8620;51.168;4.154;2022-10-19T09:04:35;15.20;99.90
17007;DHT22;8620;51.168;4.154;2022-10-19T09:09:48;15.20;99.90
17007;DHT22;8620;51.168;4.154;2022-10-19T09:12:55;15.30;99.90
17007;DHT22;8620;51.168;4.154;2022-10-19T09:15:43;15.60;99.90
17007;DHT22;8620;51.168;4.154;2022-10-19T09:18:23;15.90;99.90
17007;DHT22;8620;51.168;4.154;2022-10-19T09:21:06;15.80;99.90
17007;DHT22;8620;51.168;4.154;2022-10-19T09:23:41;15.90;99.90
17007;DHT22;8620;51.168;4.154;2022-10-19T09:26:16;15.70;99.90
17007;DHT22;8620;51.168;4.154;2022-10-19T09:29:04;15.20;99.90
17007;DHT22;8620;51.168;4.154;2022-10-19T09:31:40;15.50;99.90
17007;DHT22;8620;51.168;4.154;2022-10-19T09:36:58;16.00;99.90
17007;DHT22;8620;51.168;4.154;2022-10-19T09:39:26;16.10;99.90
17007;DHT22;8620;51.168;4.154;2022-10-19T09:41:59;16.40;99.90
17007;DHT22;8620;51.168;4.154;2022-10-19T09:44:33;16.40;99.90
17007;DHT22;8620;51.168;4.154;2022-10-19T09:47:28;16.20;99.90
17007;DHT22;8620;51.168;4.154;2022-10-19T09:50:16;16.40;99.90
17007;DHT22;8620;51.168;4.154;2022-10-19T09:52:51;16.20;99.90
17007;DHT22;8620;51.168;4.154;2022-10-19T09:58:32;16.30;99.90
17007;DHT22;8620;51.168;4.154;2022-10-19T10:00:59;16.60;99.90
17007;DHT22;8620;51.168;4.154;2022-10-19T10:03:32;16.60;99.90
17007;DHT22;8620;51.168;4.154;2022-10-19T10:06:20;16.40;99.90
17007;DHT22;8620;51.168;4.154;2022-10-19T10:08:48;16.30;99.90
17007;DHT22;8620;51.168;4.154;2022-10-19T10:11:39;16.70;99.90
17007;DHT22;8620;51.168;4.154;2022-10-19T10:14:28;16.50;99.90
17007;DHT22;8620;51.168;4.154;2022-10-19T10:17:01;16.70;99.90
17007;DHT22;8620;51.168;4.154;2022-10-19T10:19:32;16.80;99.90
17007;DHT22;8620;51.168;4.154;2022-10-19T10:33:26;16.70;99.90
17007;DHT22;8620;51.168;4.154;2022-10-19T10:36:01;16.60;99.90
17007;DHT22;8620;51.168;4.154;2022-10-19T10:38:38;16.70;99.90
17007;DHT22;8620;51.168;4.154;2022-10-19T10:41:15;16.90;99.90
17007;DHT22;8620;51.168;4.154;2022-10-19T10:43:59;17.20;99.90
17007;DHT22;8620;51.168;4.154;2022-10-19T10:47:00;17.30;99.90
17007;DHT22;8620;51.168;4.154;2022-10-19T10:50:02;17.80;99.90
17007;DHT22;8620;51.168;4.154;2022-10-19T10:52:33;17.80;99.90
17007;DHT22;8620;51.168;4.154;2022-10-19T10:55:16;17.80;99.90
17007;DHT22;8620;51.168;4.154;2022-10-19T10:57:46;17.80;99.90
17007;DHT22;8620;51.168;4.154;2022-10-19T11:00:20;17.70;99.90
17007;DHT22;8620;51.168;4.154;2022-10-19T11:06:00;18.00;99.90
17007;DHT22;8620;51.168;4.154;2022-10-19T11:08:48;17.90;99.90
17007;DHT22;8620;51.168;4.154;2022-10-19T11:11:35;17.50;99.90
17007;DHT22;8620;51.168;4.154;2022-10-19T11:17:20;17.90;99.90
17007;DHT22;8620;51.168;4.154;2022-10-19T11:19:50;18.00;99.90
17007;DHT22;8620;51.168;4.154;2022-10-19T11:31:52;18.00;99.90
17007;DHT22;8620;51.168;4.154;2022-10-19T11:40:32;17.70;99.90
17007;DHT22;8620;51.168;4.154;2022-10-19T11:43:12;17.90;99.90
17007;DHT22;8620;51.168;4.154;2022-10-19T11:46:07;17.80;99.90
17007;DHT22;8620;51.168;4.154;2022-10-19T11:52:06;17.80;99.90
17007;DHT22;8620;51.168;4.154;2022-10-19T11:58:06;17.50;99.90
17007;DHT22;8620;51.168;4.154;2022-10-19T12:12:39;18.20;99.90
17007;DHT22;8620;51.168;4.154;2022-10-19T12:17:58;18.20;99.90
17007;DHT22;8620;51.168;4.154;2022-10-19T12:20:40;18.20;99.90
17007;DHT22;8620;51.168;4.154;2022-10-19T12:23:37;18.10;99.90
17007;DHT22;8620;51.168;4.154;2022-10-19T12:26:07;17.90;99.90
17007;DHT22;8620;51.168;4.154;2022-10-19T12:28:55;17.80;99.90
17007;DHT22;8620;51.168;4.154;2022-10-19T12:31:26;17.70;99.90
17007;DHT22;8620;51.168;4.154;2022-10-19T12:34:04;17.80;99.90
17007;DHT22;8620;51.168;4.154;2022-10-19T12:37:11;17.70;99.90
17007;DHT22;8620;51.168;4.154;2022-10-19T12:39:55;17.70;99.90
17007;DHT22;8620;51.168;4.154;2022-10-19T12:49:34;18.50;99.90
17007;DHT22;8620;51.168;4.154;2022-10-19T12:52:02;18.60;99.90
17007;DHT22;8620;51.168;4.154;2022-10-19T12:54:30;18.70;99.90
17007;DHT22;8620;51.168;4.154;2022-10-19T12:57:00;18.90;99.90
17007;DHT22;8620;51.168;4.154;2022-10-19T12:59:32;18.90;99.90
17007;DHT22;8620;51.168;4.154;2022-10-19T13:02:00;18.80;99.90
17007;DHT22;8620;51.168;4.154;2022-10-19T13:04:52;18.60;99.90
17007;DHT22;8620;51.168;4.154;2022-10-19T13:07:19;18.70;99.90
17007;DHT22;8620;51.168;4.154;2022-10-19T13:09:47;18.40;99.90
17007;DHT22;8620;51.168;4.154;2022-10-19T13:22:40;17.90;99.90
17007;DHT22;8620;51.168;4.154;2022-10-19T13:42:21;17.70;99.90
17007;DHT22;8620;51.168;4.154;2022-10-19T13:46:00;17.70;99.90
17007;DHT22;8620;51.168;4.154;2022-10-19T14:11:10;17.50;99.90
17007;DHT22;8620;51.168;4.154;2022-10-19T14:20:21;17.30;99.90
17007;DHT22;8620;51.168;4.154;2022-10-19T14:29:44;17.20;99.90
17007;DHT22;8620;51.168;4.154;2022-10-19T14:33:07;17.00;99.90
17007;DHT22;8620;51.168;4.154;2022-10-19T14:36:29;16.90;99.90
17007;DHT22;8620;51.168;4.154;2022-10-19T14:39:45;17.00;99.90
17007;DHT22;8620;51.168;4.154;2022-10-19T14:49:17;16.80;99.90
17007;DHT22;8620;51.168;4.154;2022-10-19T14:55:52;16.70;99.90
17007;DHT22;8620;51.168;4.154;2022-10-19T15:02:22;17.00;99.90
17007;DHT22;8620;51.168;4.154;2022-10-19T15:09:18;16.80;99.90
17007;DHT22;8620;51.168;4.154;2022-10-19T15:12:34;16.70;99.90
17007;DHT22;8620;51.168;4.154;2022-10-19T15:15:45;16.70;99.90
17007;DHT22;8620;51.168;4.154;2022-10-19T15:18:59;16.60;99.90
17007;DHT22;8620;51.168;4.154;2022-10-19T15:36:27;16.50;99.90
17007;DHT22;8620;51.168;4.154;2022-10-19T15:54:42;16.30;99.90
17007;DHT22;8620;51.168;4.154;2022-10-19T16:01:41;16.30;99.90
17007;DHT22;8620;51.168;4.154;2022-10-19T16:04:50;16.30;99.90
17007;DHT22;8620;51.168;4.154;2022-10-19T16:08:08;16.20;99.90
17007;DHT22;8620;51.168;4.154;2022-10-19T16:11:35;16.10;99.90
17007;DHT22;8620;51.168;4.154;2022-10-19T16:14:56;16.00;99.90
17007;DHT22;8620;51.168;4.154;2022-10-19T16:17:57;15.90;99.90
17007;DHT22;8620;51.168;4.154;2022-10-19T16:21:19;15.90;99.90
17007;DHT22;8620;51.168;4.154;2022-10-19T16:24:43;16.00;99.90
17007;DHT22;8620;51.168;4.154;2022-10-19T16:27:51;16.00;99.90
17007;DHT22;8620;51.168;4.154;2022-10-19T16:30:59;15.90;99.90
17007;DHT22;8620;51.168;4.154;2022-10-19T16:34:18;15.90;99.90
17007;DHT22;8620;51.168;4.154;2022-10-19T16:37:16;15.80;99.90
17007;DHT22;8620;51.168;4.154;2022-10-19T16:40:24;15.60;99.90
17007;DHT22;8620;51.168;4.154;2022-10-19T16:44:08;15.50;99.90
17007;DHT22;8620;51.168;4.154;2022-10-19T16:47:12;15.60;99.90
17007;DHT22;8620;51.168;4.154;2022-10-19T16:50:22;15.50;99.90
17007;DHT22;8620;51.168;4.154;2022-10-19T16:53:50;15.40;99.90
17007;DHT22;8620;51.168;4.154;2022-10-19T16:56:53;15.40;99.90
17007;DHT22;8620;51.168;4.154;2022-10-19T16:59:58;15.40;99.90
17007;DHT22;8620;51.168;4.154;2022-10-19T17:03:17;15.30;99.90
17007;DHT22;8620;51.168;4.154;2022-10-19T17:06:28;15.20;99.90
17007;DHT22;8620;51.168;4.154;2022-10-19T17:09:46;15.20;99.90
17007;DHT22;8620;51.168;4.154;2022-10-19T17:12:57;15.10;99.90
17007;DHT22;8620;51.168;4.154;2022-10-19T17:15:58;15.10;99.90
17007;DHT22;8620;51.168;4.154;2022-10-19T17:19:27;15.10;99.90
17007;DHT22;8620;51.168;4.154;2022-10-19T17:22:43;15.00;99.90
17007;DHT22;8620;51.168;4.154;2022-10-19T17:25:51;14.90;99.90
17007;DHT22;8620;51.168;4.154;2022-10-19T17:29:13;14.90;99.90
17007;DHT22;8620;51.168;4.154;2022-10-19T17:32:20;14.80;99.90
17007;DHT22;8620;51.168;4.154;2022-10-19T17:35:21;14.90;99.90
17007;DHT22;8620;51.168;4.154;2022-10-19T17:38:43;14.80;99.90
17007;DHT22;8620;51.168;4.154;2022-10-19T17:41:54;14.70;99.90
17007;DHT22;8620;51.168;4.154;2022-10-19T17:45:02;14.60;99.90
17007;DHT22;8620;51.168;4.154;2022-10-19T17:48:29;14.50;99.90
17007;DHT22;8620;51.168;4.154;2022-10-19T17:51:51;14.50;99.90
17007;DHT22;8620;51.168;4.154;2022-10-19T17:54:56;14.50;99.90
17007;DHT22;8620;51.168;4.154;2022-10-19T17:58:22;14.50;99.90
17007;DHT22;8620;51.168;4.154;2022-10-19T18:01:31;14.60;99.90
17007;DHT22;8620;51.168;4.154;2022-10-19T18:04:35;14.50;99.90
17007;DHT22;8620;51.168;4.154;2022-10-19T18:07:59;14.60;99.90
17007;DHT22;8620;51.168;4.154;2022-10-19T18:11:32;14.50;99.90
17007;DHT22;8620;51.168;4.154;2022-10-19T18:14:41;14.60;99.90
17007;DHT22;8620;51.168;4.154;2022-10-19T18:17:53;14.60;99.90
17007;DHT22;8620;51.168;4.154;2022-10-19T18:21:09;14.50;99.90
17007;DHT22;8620;51.168;4.154;2022-10-19T18:24:22;14.40;99.90
17007;DHT22;8620;51.168;4.154;2022-10-19T18:27:40;14.50;99.90
17007;DHT22;8620;51.168;4.154;2022-10-19T18:30:59;14.40;99.90
17007;DHT22;8620;51.168;4.154;2022-10-19T18:37:24;14.30;99.90
17007;DHT22;8620;51.168;4.154;2022-10-19T18:40:32;14.40;99.90
17007;DHT22;8620;51.168;4.154;2022-10-19T18:47:07;14.40;99.90
17007;DHT22;8620;51.168;4.154;2022-10-19T18:50:15;14.30;99.90
17007;DHT22;8620;51.168;4.154;2022-10-19T18:53:18;14.20;99.90
17007;DHT22;8620;51.168;4.154;2022-10-19T18:56:40;14.20;99.90
17007;DHT22;8620;51.168;4.154;2022-10-19T18:59:58;14.10;99.90
17007;DHT22;8620;51.168;4.154;2022-10-19T19:03:12;14.10;99.90
17007;DHT22;8620;51.168;4.154;2022-10-19T19:09:58;14.20;99.90
17007;DHT22;8620;51.168;4.154;2022-10-19T19:13:01;14.20;99.90
17007;DHT22;8620;51.168;4.154;2022-10-19T19:16:12;14.10;99.90
17007;DHT22;8620;51.168;4.154;2022-10-19T19:19:37;14.10;99.90
17007;DHT22;8620;51.168;4.154;2022-10-19T19:22:46;14.10;99.90
17007;DHT22;8620;51.168;4.154;2022-10-19T19:25:50;14.10;99.90
17007;DHT22;8620;51.168;4.154;2022-10-19T19:32:25;14.00;99.90
17007;DHT22;8620;51.168;4.154;2022-10-19T19:35:46;14.00;99.90
17007;DHT22;8620;51.168;4.154;2022-10-19T19:39:12;14.00;99.90
17007;DHT22;8620;51.168;4.154;2022-10-19T19:42:20;14.00;99.90
17007;DHT22;8620;51.168;4.154;2022-10-19T19:45:24;13.90;99.90
17007;DHT22;8620;51.168;4.154;2022-10-19T19:48:27;13.90;99.90
17007;DHT22;8620;51.168;4.154;2022-10-19T19:51:47;13.80;99.90
17007;DHT22;8620;51.168;4.154;2022-10-19T19:54:51;13.70;99.90
17007;DHT22;8620;51.168;4.154;2022-10-19T20:04:40;13.80;99.90
17007;DHT22;8620;51.168;4.154;2022-10-19T20:07:46;13.80;99.90
17007;DHT22;8620;51.168;4.154;2022-10-19T20:11:01;13.70;99.90
17007;DHT22;8620;51.168;4.154;2022-10-19T20:14:08;13.70;99.90
17007;DHT22;8620;51.168;4.154;2022-10-19T20:17:14;13.70;99.90
17007;DHT22;8620;51.168;4.154;2022-10-19T20:20:25;13.70;99.90
17007;DHT22;8620;51.168;4.154;2022-10-19T20:23:34;13.70;99.90
17007;DHT22;8620;51.168;4.154;2022-10-19T20:26:40;13.70;99.90
17007;DHT22;8620;51.168;4.154;2022-10-19T20:29:41;13.80;99.90
17007;DHT22;8620;51.168;4.154;2022-10-19T20:36:12;13.60;99.90
17007;DHT22;8620;51.168;4.154;2022-10-19T20:42:35;13.60;99.90
17007;DHT22;8620;51.168;4.154;2022-10-19T20:45:38;13.50;99.90
17007;DHT22;8620;51.168;4.154;2022-10-19T20:49:02;13.50;99.90
17007;DHT22;8620;51.168;4.154;2022-10-19T20:52:09;13.50;99.90
17007;DHT22;8620;51.168;4.154;2022-10-19T20:58:43;13.40;99.90
17007;DHT22;8620;51.168;4.154;2022-10-19T21:02:08;13.40;99.90
17007;DHT22;8620;51.168;4.154;2022-10-19T21:08:40;13.50;99.90
17007;DHT22;8620;51.168;4.154;2022-10-19T21:11:49;13.50;99.90
17007;DHT22;8620;51.168;4.154;2022-10-19T21:14:58;13.40;99.90
17007;DHT22;8620;51.168;4.154;2022-10-19T21:18:08;13.40;99.90
17007;DHT22;8620;51.168;4.154;2022-10-19T21:24:52;13.40;99.90
17007;DHT22;8620;51.168;4.154;2022-10-19T21:28:18;13.40;99.90
17007;DHT22;8620;51.168;4.154;2022-10-19T21:31:42;13.40;99.90
17007;DHT22;8620;51.168;4.154;2022-10-19T21:34:50;13.40;99.90
17007;DHT22;8620;51.168;4.154;2022-10-19T21:37:54;13.50;99.90
17007;DHT22;8620;51.168;4.154;2022-10-19T21:41:00;13.50;99.90
17007;DHT22;8620;51.168;4.154;2022-10-19T21:44:23;13.50;99.90
17007;DHT22;8620;51.168;4.154;2022-10-19T21:47:44;13.50;99.90
17007;DHT22;8620;51.168;4.154;2022-10-19T21:50:52;13.40;99.90